Time;durP1;ratioP1;P1;durP2;ratioP2;P2;SDS_P1;SDS_P2;PMS_P1;PMS_P2;Temp;Humidity;BMP_temperature;BMP_pressure;BME280_temperature;BME280_humidity;BME280_pressure;Samples;Min_cycle;Max_cycle;Signal;HPM_P1;HPM_P2
2023/07/17 00:01:36;;;;;;;11.23;5.00;;;30.50;57.80;;;;;;6214251;23;19997;-76
2023/07/17 00:04:01;;;;;;;12.45;4.85;;;30.50;57.90;;;;;;6214686;23;20467;-75
2023/07/17 00:06:27;;;;;;;11.48;5.38;;;30.40;57.90;;;;;;6214720;23;20024;-75
2023/07/17 00:08:53;;;;;;;11.60;5.45;;;30.40;57.90;;;;;;6214514;23;20322;-75
2023/07/17 00:11:18;;;;;;;15.55;5.53;;;30.40;58.10;;;;;;6214643;23;20000;-75
2023/07/17 00:13:44;;;;;;;11.60;4.78;;;30.40;58.10;;;;;;6214189;23;20353;-75
2023/07/17 00:16:10;;;;;;;13.98;5.20;;;30.40;58.10;;;;;;6214580;23;20004;-74
2023/07/17 00:18:35;;;;;;;11.55;4.72;;;30.40;58.10;;;;;;6214502;23;20088;-75
2023/07/17 00:21:02;;;;;;;13.45;5.55;;;30.40;58.20;;;;;;6214447;23;20020;-75
2023/07/17 00:23:27;;;;;;;11.48;4.93;;;30.40;58.40;;;;;;6215929;23;20005;-76
2023/07/17 00:25:53;;;;;;;10.88;5.30;;;30.30;58.40;;;;;;6217827;23;20449;-75
2023/07/17 00:28:19;;;;;;;10.98;5.00;;;30.30;58.40;;;;;;6217831;23;20001;-74
2023/07/17 00:30:45;;;;;;;14.20;5.25;;;30.20;58.50;;;;;;6217567;23;20419;-75
2023/07/17 00:33:11;;;;;;;19.58;5.65;;;30.20;58.50;;;;;;6218053;23;20427;-75
2023/07/17 00:35:37;;;;;;;13.02;5.32;;;30.20;58.60;;;;;;6217618;23;20079;-71
2023/07/17 00:38:03;;;;;;;18.05;5.38;;;30.20;58.60;;;;;;6190772;23;20044;-76
2023/07/17 00:40:30;;;;;;;14.70;6.18;;;30.20;58.50;;;;;;6218072;23;20004;-75
2023/07/17 00:42:59;;;;;;;12.60;5.15;;;30.20;58.60;;;;;;6217914;23;20083;-76
2023/07/17 00:45:31;;;;;;;12.20;5.43;;;30.20;58.50;;;;;;6191056;23;20068;-74
2023/07/17 00:47:58;;;;;;;13.00;5.30;;;30.20;58.50;;;;;;6217889;23;20028;-75
2023/07/17 00:50:24;;;;;;;11.55;5.50;;;30.20;58.50;;;;;;6217503;23;20330;-75
2023/07/17 00:52:50;;;;;;;12.68;5.63;;;30.10;58.60;;;;;;6190974;23;20083;-75
2023/07/17 00:55:17;;;;;;;14.50;5.47;;;30.10;58.60;;;;;;6217857;23;20048;-75
2023/07/17 00:57:43;;;;;;;11.43;5.28;;;30.00;58.70;;;;;;6217663;23;20013;-75
2023/07/17 01:00:12;;;;;;;14.85;5.75;;;30.00;58.70;;;;;;6190970;23;20011;-75
2023/07/17 01:02:39;;;;;;;10.75;5.40;;;30.00;58.70;;;;;;6217625;23;20001;-74
2023/07/17 01:05:05;;;;;;;14.50;5.47;;;30.00;58.80;;;;;;6217804;23;20008;-76
2023/07/17 01:07:31;;;;;;;15.05;5.55;;;30.00;58.90;;;;;;6217793;23;20331;-74
2023/07/17 01:09:57;;;;;;;16.42;5.20;;;29.90;59.10;;;;;;6217651;23;20003;-75
2023/07/17 01:12:23;;;;;;;13.23;5.88;;;29.90;59.20;;;;;;6217254;23;20000;-74
2023/07/17 01:14:49;;;;;;;13.88;5.75;;;29.90;59.50;;;;;;6217571;23;20083;-75
2023/07/17 01:17:15;;;;;;;14.93;5.85;;;29.80;59.40;;;;;;6217461;23;20005;-75
2023/07/17 01:19:40;;;;;;;13.40;6.18;;;29.80;59.50;;;;;;6217503;23;20011;-74
2023/07/17 01:22:22;;;;;;;12.02;6.22;;;29.70;59.60;;;;;;6217329;23;20075;-74
2023/07/17 01:24:48;;;;;;;12.18;6.20;;;29.70;60.00;;;;;;6217588;23;20035;-74
2023/07/17 01:27:14;;;;;;;14.38;5.63;;;29.60;59.70;;;;;;6217708;23;19996;-75
2023/07/17 01:29:40;;;;;;;14.40;5.88;;;29.60;59.70;;;;;;6217665;23;20063;-75
2023/07/17 01:32:06;;;;;;;16.77;6.20;;;29.50;59.70;;;;;;6216955;23;20063;-74
2023/07/17 01:34:32;;;;;;;14.85;5.88;;;29.50;60.10;;;;;;6216396;23;20064;-74
2023/07/17 01:36:57;;;;;;;12.77;5.50;;;29.50;60.30;;;;;;6216119;23;20001;-76
2023/07/17 01:39:24;;;;;;;14.77;5.55;;;29.50;60.30;;;;;;6215826;23;20036;-74
2023/07/17 01:41:50;;;;;;;14.52;5.50;;;29.50;60.30;;;;;;6216051;23;19997;-74
2023/07/17 01:44:16;;;;;;;19.35;6.13;;;29.40;60.40;;;;;;6215782;23;20075;-75
2023/07/17 01:46:42;;;;;;;14.68;5.22;;;29.40;60.70;;;;;;6215813;23;20031;-76
2023/07/17 01:49:07;;;;;;;11.48;5.30;;;29.40;60.60;;;;;;6216163;23;19997;-76
2023/07/17 01:51:33;;;;;;;14.35;5.65;;;29.40;60.60;;;;;;6215997;23;20226;-74
2023/07/17 01:53:59;;;;;;;13.45;5.32;;;29.40;60.70;;;;;;6215584;23;20334;-74
2023/07/17 01:56:25;;;;;;;11.45;5.40;;;29.30;60.50;;;;;;6215498;23;20009;-75
2023/07/17 01:58:51;;;;;;;13.10;5.35;;;29.30;60.80;;;;;;6215451;23;20083;-75
2023/07/17 02:01:16;;;;;;;10.05;5.05;;;29.30;60.70;;;;;;6215750;23;20022;-75
2023/07/17 02:03:42;;;;;;;14.43;5.43;;;29.30;60.80;;;;;;6215679;23;20013;-76
2023/07/17 02:06:08;;;;;;;18.15;5.57;;;29.30;60.90;;;;;;6215700;23;20004;-74
2023/07/17 02:08:34;;;;;;;12.82;5.28;;;29.30;60.90;;;;;;6215922;23;20016;-75
2023/07/17 02:11:00;;;;;;;13.35;5.70;;;29.30;60.80;;;;;;6215973;23;20383;-78
2023/07/17 02:13:25;;;;;;;10.55;5.40;;;29.20;60.90;;;;;;6215717;23;20009;-76
2023/07/17 02:15:51;;;;;;;11.23;4.88;;;29.20;60.90;;;;;;6215682;23;20003;-76
2023/07/17 02:18:17;;;;;;;12.25;5.35;;;29.20;60.90;;;;;;6215580;23;20034;-76
2023/07/17 02:20:43;;;;;;;10.15;5.05;;;29.10;61.10;;;;;;6215353;23;20304;-75
2023/07/17 02:23:09;;;;;;;12.35;5.20;;;29.10;61.20;;;;;;6215216;23;20007;-74
2023/07/17 02:25:34;;;;;;;17.38;5.35;;;29.10;61.30;;;;;;6215216;23;20005;-75
2023/07/17 02:28:00;;;;;;;15.63;5.05;;;28.90;61.20;;;;;;6215558;23;20020;-74
2023/07/17 02:30:26;;;;;;;12.20;5.57;;;28.90;62.20;;;;;;6215285;23;20331;-74
2023/07/17 02:32:51;;;;;;;11.65;5.20;;;28.90;61.60;;;;;;6215204;23;20012;-75
2023/07/17 02:35:17;;;;;;;12.45;5.40;;;28.90;61.70;;;;;;6215147;23;20004;-75
2023/07/17 02:37:43;;;;;;;15.65;5.75;;;28.90;61.90;;;;;;6215251;23;20020;-73
2023/07/17 02:40:10;;;;;;;13.10;5.68;;;29.00;61.60;;;;;;6215200;23;20354;-75
2023/07/17 02:42:36;;;;;;;11.90;5.25;;;29.00;61.70;;;;;;6188405;23;20063;-74
2023/07/17 02:45:03;;;;;;;12.70;5.57;;;28.90;61.60;;;;;;6215752;23;20089;-75
2023/07/17 02:47:29;;;;;;;15.05;6.03;;;28.90;61.80;;;;;;6215358;23;20060;-75
2023/07/17 02:49:55;;;;;;;14.85;5.30;;;28.90;61.60;;;;;;6214997;23;20008;-75
2023/07/17 02:52:21;;;;;;;13.30;5.30;;;28.80;61.60;;;;;;6215275;23;20007;-74
2023/07/17 02:54:46;;;;;;;12.00;5.78;;;28.80;61.60;;;;;;6215083;23;20007;-74
2023/07/17 02:57:13;;;;;;;10.02;5.25;;;28.80;61.40;;;;;;6215200;23;20527;-74
2023/07/17 02:59:39;;;;;;;14.38;4.95;;;28.80;61.40;;;;;;6215560;23;20020;-75
2023/07/17 03:02:05;;;;;;;16.25;5.10;;;28.90;61.70;;;;;;6215193;23;20001;-74
2023/07/17 03:04:31;;;;;;;11.15;5.28;;;28.80;61.30;;;;;;6214966;23;20001;-75
2023/07/17 03:06:57;;;;;;;11.68;5.38;;;28.80;61.30;;;;;;6215356;23;20024;-76
2023/07/17 03:09:23;;;;;;;10.07;4.53;;;28.70;61.70;;;;;;6215087;23;20411;-75
2023/07/17 03:11:49;;;;;;;15.02;5.30;;;28.60;61.60;;;;;;6215033;23;20435;-75
2023/07/17 03:14:14;;;;;;;12.20;4.38;;;28.50;62.00;;;;;;6215040;23;20001;-74
2023/07/17 03:16:41;;;;;;;15.73;4.97;;;28.40;62.30;;;;;;6215063;23;20001;-73
2023/07/17 03:19:06;;;;;;;12.38;4.97;;;28.20;62.70;;;;;;6214800;23;20056;-74
2023/07/17 03:21:32;;;;;;;17.85;5.18;;;28.20;62.80;;;;;;6214918;23;20004;-74
2023/07/17 03:23:58;;;;;;;13.35;5.05;;;28.10;63.10;;;;;;6187933;23;20402;-75
2023/07/17 03:26:24;;;;;;;12.82;5.05;;;27.90;63.10;;;;;;6214880;23;20007;-74
2023/07/17 03:28:49;;;;;;;10.00;4.82;;;27.90;63.40;;;;;;6188251;23;20012;-74
2023/07/17 03:31:15;;;;;;;9.73;4.28;;;27.90;63.40;;;;;;6214945;23;20059;-75
2023/07/17 03:33:41;;;;;;;9.68;5.22;;;27.90;64.00;;;;;;6214911;23;20005;-75
2023/07/17 03:36:06;;;;;;;11.98;4.68;;;27.80;63.20;;;;;;6214906;23;20001;-75
2023/07/17 03:38:32;;;;;;;14.52;4.80;;;27.80;63.30;;;;;;6214682;23;20008;-75
2023/07/17 03:40:58;;;;;;;8.93;5.03;;;27.80;63.40;;;;;;6215002;23;20066;-75
2023/07/17 03:43:23;;;;;;;13.80;5.35;;;27.80;63.50;;;;;;6214920;23;20430;-74
2023/07/17 03:45:52;;;;;;;13.85;4.95;;;27.80;63.50;;;;;;6214589;23;20000;-75
2023/07/17 03:48:18;;;;;;;9.43;4.55;;;27.80;63.60;;;;;;6215002;23;20464;-74
2023/07/17 03:50:44;;;;;;;10.77;4.35;;;27.70;63.50;;;;;;6214606;23;20005;-75
2023/07/17 03:53:10;;;;;;;13.27;5.55;;;27.70;63.70;;;;;;6214614;23;20009;-75
2023/07/17 03:55:37;;;;;;;13.55;5.15;;;27.70;63.70;;;;;;6214543;23;19997;-76
2023/07/17 03:58:04;;;;;;;9.88;5.15;;;27.80;63.70;;;;;;6188143;23;20008;-74
2023/07/17 04:00:30;;;;;;;14.90;4.70;;;27.80;63.50;;;;;;6214403;23;20071;-75
2023/07/17 04:02:56;;;;;;;12.25;5.00;;;27.80;63.60;;;;;;6214406;23;20079;-75
2023/07/17 04:05:21;;;;;;;14.65;4.75;;;27.90;63.60;;;;;;6214292;23;20431;-76
2023/07/17 04:07:47;;;;;;;11.98;5.28;;;27.90;63.00;;;;;;6214341;23;20057;-75
2023/07/17 04:10:13;;;;;;;11.15;5.45;;;28.00;64.00;;;;;;6214465;23;20059;-75
2023/07/17 04:12:38;;;;;;;14.15;5.35;;;28.00;62.70;;;;;;6214031;23;20001;-75
2023/07/17 04:15:04;;;;;;;11.98;5.03;;;28.00;62.90;;;;;;6214422;23;19996;-76
2023/07/17 04:17:30;;;;;;;11.48;4.80;;;28.00;63.20;;;;;;6214367;23;20334;-75
2023/07/17 04:19:56;;;;;;;15.27;5.55;;;28.00;63.00;;;;;;6214309;23;20000;-74
2023/07/17 04:22:21;;;;;;;13.23;5.88;;;28.00;63.50;;;;;;6213991;23;20005;-73
2023/07/17 04:24:47;;;;;;;11.38;5.18;;;27.90;63.30;;;;;;6214013;23;20008;-73
2023/07/17 04:27:13;;;;;;;10.15;4.75;;;27.80;63.70;;;;;;6214140;23;20415;-74
2023/07/17 04:29:38;;;;;;;13.45;5.40;;;27.80;63.90;;;;;;6213977;23;20312;-75
2023/07/17 04:32:04;;;;;;;14.27;4.72;;;27.90;63.60;;;;;;6213710;23;20021;-75
2023/07/17 04:34:31;;;;;;;12.20;4.75;;;27.80;63.90;;;;;;6213816;23;19997;-73
2023/07/17 04:36:57;;;;;;;16.17;5.85;;;27.90;63.30;;;;;;6187206;23;20017;-74
2023/07/17 04:39:23;;;;;;;15.27;6.50;;;27.90;63.80;;;;;;6213999;23;20027;-74
2023/07/17 04:41:49;;;;;;;10.45;5.40;;;27.80;63.90;;;;;;6214228;23;19997;-75
2023/07/17 04:44:15;;;;;;;16.80;5.57;;;28.00;63.90;;;;;;6213701;23;20004;-75
2023/07/17 04:46:40;;;;;;;14.48;5.40;;;27.90;63.80;;;;;;6214028;23;20024;-75
2023/07/17 04:49:07;;;;;;;10.07;4.82;;;27.90;64.00;;;;;;6213765;23;19996;-74
2023/07/17 04:51:33;;;;;;;10.75;5.03;;;28.00;63.70;;;;;;6213881;23;20032;-75
2023/07/17 04:53:59;;;;;;;11.63;5.53;;;28.00;63.90;;;;;;6187013;23;20005;-74
2023/07/17 04:56:25;;;;;;;10.77;5.18;;;28.00;63.80;;;;;;6214144;23;20011;-75
2023/07/17 04:58:52;;;;;;;10.80;5.20;;;28.00;63.90;;;;;;6213912;23;20009;-76
2023/07/17 05:01:17;;;;;;;12.10;5.50;;;28.00;63.80;;;;;;6213857;23;20024;-76
2023/07/17 05:03:43;;;;;;;13.65;5.75;;;28.10;63.80;;;;;;6213754;23;20008;-74
2023/07/17 05:06:09;;;;;;;15.80;5.18;;;28.10;63.70;;;;;;6213937;23;20360;-75
2023/07/17 05:08:34;;;;;;;15.85;5.35;;;28.00;63.50;;;;;;6214692;23;20334;-74
2023/07/17 05:11:02;;;;;;;15.18;5.55;;;28.00;63.50;;;;;;6215761;23;20001;-75
2023/07/17 05:13:28;;;;;;;11.07;5.07;;;28.00;63.20;;;;;;6215716;23;20009;-74
2023/07/17 05:15:54;;;;;;;12.15;5.75;;;28.00;63.80;;;;;;6215802;23;20079;-75
2023/07/17 05:18:20;;;;;;;17.17;5.75;;;28.10;63.70;;;;;;6215953;23;20013;-76
2023/07/17 05:20:47;;;;;;;14.57;5.53;;;28.20;63.20;;;;;;6188961;23;20004;-76
2023/07/17 05:23:13;;;;;;;15.48;5.97;;;28.40;62.80;;;;;;6215763;23;20012;-74
2023/07/17 05:25:39;;;;;;;20.58;5.63;;;28.60;62.20;;;;;;6215759;23;20000;-74
2023/07/17 05:28:05;;;;;;;11.63;5.20;;;28.90;61.70;;;;;;6215269;23;20043;-75
2023/07/17 05:30:34;;;;;;;12.68;5.88;;;29.00;61.40;;;;;;6215559;23;20004;-75
2023/07/17 05:33:01;;;;;;;17.80;6.15;;;29.10;61.00;;;;;;6215735;23;20079;-75
2023/07/17 05:35:27;;;;;;;16.17;5.63;;;29.40;60.50;;;;;;6215393;23;19997;-75
2023/07/17 05:37:56;;;;;;;13.15;5.35;;;29.70;58.80;;;;;;6215216;23;20012;-75
2023/07/17 05:40:22;;;;;;;17.33;5.70;;;29.90;58.70;;;;;;6215579;23;20091;-76
2023/07/17 05:42:47;;;;;;;10.02;5.75;;;30.10;58.40;;;;;;6215491;23;20048;-75
2023/07/17 05:45:13;;;;;;;17.63;5.70;;;30.40;57.80;;;;;;6215650;23;20439;-76
2023/07/17 05:47:41;;;;;;;12.57;5.18;;;30.60;57.40;;;;;;6215620;23;20005;-76
2023/07/17 05:50:07;;;;;;;13.80;5.88;;;30.80;57.30;;;;;;6215784;23;20000;-76
2023/07/17 05:52:33;;;;;;;14.75;5.65;;;31.00;56.90;;;;;;6215544;23;20072;-75
2023/07/17 05:54:59;;;;;;;14.02;5.53;;;31.10;56.50;;;;;;6215443;23;20422;-75
2023/07/17 05:57:24;;;;;;;17.13;5.95;;;31.40;56.40;;;;;;6215070;23;20008;-74
2023/07/17 05:59:50;;;;;;;16.05;5.55;;;31.70;55.80;;;;;;6214818;23;20040;-75
2023/07/17 06:02:16;;;;;;;12.60;5.97;;;31.70;55.50;;;;;;6215181;23;20024;-75
2023/07/17 06:04:41;;;;;;;12.85;5.63;;;31.80;55.30;;;;;;6214808;23;20418;-75
2023/07/17 06:07:08;;;;;;;12.98;5.47;;;31.80;55.00;;;;;;6215142;23;20004;-77
2023/07/17 06:09:37;;;;;;;15.60;5.43;;;31.90;55.10;;;;;;6188321;23;20329;-76
2023/07/17 06:12:03;;;;;;;15.07;5.28;;;31.90;54.20;;;;;;6215259;23;20028;-76
2023/07/17 06:14:28;;;;;;;17.13;5.72;;;32.00;54.80;;;;;;6215246;23;20072;-76
2023/07/17 06:16:54;;;;;;;15.60;6.15;;;31.90;54.80;;;;;;6214661;23;19996;-76
2023/07/17 06:19:20;;;;;;;14.60;5.75;;;31.90;54.60;;;;;;6214917;23;20415;-76
2023/07/17 06:21:46;;;;;;;16.52;5.45;;;32.20;54.70;;;;;;6188190;23;20043;-76
2023/07/17 06:24:12;;;;;;;14.02;5.80;;;32.30;54.20;;;;;;6214772;23;20076;-77
2023/07/17 06:26:38;;;;;;;15.35;5.32;;;32.30;53.90;;;;;;6214840;23;20004;-77
2023/07/17 06:29:05;;;;;;;15.10;5.85;;;32.30;53.90;;;;;;6214964;23;20023;-75
2023/07/17 06:31:31;;;;;;;16.77;5.68;;;32.30;53.90;;;;;;6214855;23;20100;-76
2023/07/17 06:33:57;;;;;;;17.60;6.30;;;32.30;53.70;;;;;;6214735;23;20007;-76
2023/07/17 06:36:23;;;;;;;13.70;5.72;;;32.50;53.60;;;;;;6215316;23;20426;-76
2023/07/17 06:38:49;;;;;;;17.17;6.47;;;32.60;53.40;;;;;;6214617;23;20019;-76
2023/07/17 06:41:16;;;;;;;14.60;5.90;;;32.80;53.00;;;;;;6214700;23;20323;-75
2023/07/17 06:43:43;;;;;;;18.80;6.35;;;32.90;53.30;;;;;;6214812;23;20339;-75
2023/07/17 06:46:09;;;;;;;15.20;5.63;;;33.10;53.00;;;;;;6214779;23;20012;-75
2023/07/17 06:48:35;;;;;;;13.93;5.85;;;33.50;52.70;;;;;;6215149;23;20073;-75
2023/07/17 06:51:00;;;;;;;12.88;5.32;;;33.90;51.90;;;;;;6216335;23;20028;-77
2023/07/17 06:53:26;;;;;;;15.30;5.57;;;34.10;51.40;;;;;;6188027;23;20019;-75
2023/07/17 06:55:59;;;;;;;15.23;5.72;;;34.20;51.20;;;;;;6214703;23;20007;-75
2023/07/17 06:58:25;;;;;;;14.80;5.50;;;34.40;50.60;;;;;;6214167;23;20021;-76
2023/07/17 07:00:58;;;;;;;15.40;5.88;;;34.40;50.30;;;;;;6214260;23;20253;-75
2023/07/17 07:03:24;;;;;;;;;;;34.60;50.20;;;;;;6215190;23;20001;-76
2023/07/17 07:06:01;;;;;;;20.10;5.75;;;34.50;49.30;;;;;;6214359;23;19926;-76
2023/07/17 07:08:29;;;;;;;14.15;5.93;;;34.60;50.20;;;;;;6214685;23;20008;-74
2023/07/17 07:10:56;;;;;;;13.40;5.18;;;34.60;50.10;;;;;;6187493;23;20004;-76
2023/07/17 07:13:23;;;;;;;11.88;5.38;;;34.60;50.10;;;;;;6214497;23;20001;-76
2023/07/17 07:15:50;;;;;;;11.73;5.45;;;34.50;50.00;;;;;;6214788;23;20007;-75
2023/07/17 07:18:16;;;;;;;10.82;5.10;;;34.60;49.80;;;;;;6214396;23;20017;-76
2023/07/17 07:20:43;;;;;;;16.83;6.32;;;34.70;49.70;;;;;;6214677;23;20001;-76
2023/07/17 07:23:09;;;;;;;15.13;5.40;;;34.70;49.10;;;;;;6214488;23;20015;-75
2023/07/17 07:25:34;;;;;;;15.10;5.72;;;34.70;49.00;;;;;;6214311;23;20008;-77
2023/07/17 07:28:00;;;;;;;19.08;5.55;;;34.70;48.70;;;;;;6214831;23;20072;-76
2023/07/17 07:30:27;;;;;;;14.35;4.75;;;34.70;48.40;;;;;;6214279;23;19996;-76
2023/07/17 07:32:53;;;;;;;12.55;4.82;;;34.70;48.20;;;;;;6187384;23;20020;-74
2023/07/17 07:35:19;;;;;;;11.65;5.72;;;34.80;48.10;;;;;;6214647;23;19996;-76
2023/07/17 07:37:45;;;;;;;14.27;5.50;;;35.00;48.00;;;;;;6214168;23;20016;-74
2023/07/17 07:40:12;;;;;;;19.75;5.60;;;35.00;47.70;;;;;;6214084;23;20284;-77
2023/07/17 07:42:43;;;;;;;17.33;5.22;;;35.00;47.60;;;;;;6214461;23;20430;-76
2023/07/17 07:45:12;;;;;;;17.73;5.90;;;35.10;47.50;;;;;;6214353;23;20418;-77
2023/07/17 07:47:41;;;;;;;17.63;6.10;;;35.00;47.20;;;;;;6214435;23;19996;-75
2023/07/17 07:50:07;;;;;;;13.55;5.28;;;35.00;47.30;;;;;;6187097;23;20008;-76
2023/07/17 07:52:33;;;;;;;17.13;5.75;;;35.10;47.90;;;;;;6214408;23;20007;-76
2023/07/17 07:54:59;;;;;;;18.35;5.43;;;35.10;47.10;;;;;;6214314;23;20024;-76
2023/07/17 07:57:25;;;;;;;20.85;6.10;;;35.20;47.20;;;;;;6214689;23;20080;-75
2023/07/17 07:59:51;;;;;;;20.70;5.78;;;35.20;47.00;;;;;;6213994;23;20016;-77
2023/07/17 08:02:17;;;;;;;19.40;6.00;;;35.10;47.10;;;;;;6214505;23;20007;-76
2023/07/17 08:04:43;;;;;;;15.93;5.95;;;35.10;47.10;;;;;;6214283;23;20000;-75
2023/07/17 08:07:09;;;;;;;18.55;5.85;;;35.10;47.20;;;;;;6214452;23;20131;-77
2023/07/17 08:09:35;;;;;;;15.80;5.53;;;35.20;47.20;;;;;;6214553;23;20029;-76
2023/07/17 08:12:00;;;;;;;19.15;6.70;;;35.10;47.40;;;;;;6213957;23;20095;-75
2023/07/17 08:14:26;;;;;;;16.85;5.95;;;35.20;47.20;;;;;;6213751;23;20124;-75
2023/07/17 08:16:52;;;;;;;15.82;5.97;;;35.20;47.20;;;;;;6213781;23;20161;-76
2023/07/17 08:19:19;;;;;;;15.13;5.25;;;35.30;47.20;;;;;;6214040;23;20431;-77
2023/07/17 08:21:45;;;;;;;20.30;6.65;;;35.20;46.90;;;;;;6213797;23;19997;-76
2023/07/17 08:24:10;;;;;;;17.58;5.82;;;35.10;46.90;;;;;;6214627;23;20020;-78
2023/07/17 08:26:38;;;;;;;16.38;5.05;;;35.10;46.70;;;;;;6214041;23;19997;-75
2023/07/17 08:29:05;;;;;;;17.17;5.90;;;35.00;46.90;;;;;;6214213;23;20088;-77
2023/07/17 08:31:33;;;;;;;22.45;6.72;;;35.00;46.90;;;;;;6214115;23;20084;-76
2023/07/17 08:34:00;;;;;;;15.25;5.75;;;35.00;47.00;;;;;;6213557;23;20096;-77
2023/07/17 08:36:27;;;;;;;18.27;6.10;;;35.00;46.40;;;;;;6213898;23;20066;-75
2023/07/17 08:38:54;;;;;;;15.88;5.32;;;34.90;46.60;;;;;;6213990;23;20067;-76
2023/07/17 08:41:21;;;;;;;12.07;5.40;;;34.80;46.10;;;;;;6213841;23;20004;-76
2023/07/17 08:43:48;;;;;;;17.10;5.88;;;34.80;46.20;;;;;;6214117;23;20005;-76
2023/07/17 08:46:14;;;;;;;20.25;5.72;;;34.80;45.80;;;;;;6216168;23;20077;-75
2023/07/17 08:48:44;;;;;;;18.30;5.43;;;34.60;45.70;;;;;;6215947;23;20315;-77
2023/07/17 08:51:11;;;;;;;12.88;5.22;;;34.60;45.40;;;;;;6216098;23;19997;-76
2023/07/17 08:53:40;;;;;;;16.63;5.78;;;34.60;44.80;;;;;;6215999;23;20079;-76
2023/07/17 08:56:07;;;;;;;16.17;5.40;;;34.70;44.60;;;;;;6189085;23;20382;-77
2023/07/17 08:58:34;;;;;;;15.57;5.40;;;34.70;44.40;;;;;;6215979;23;20079;-75
2023/07/17 09:01:01;;;;;;;17.58;5.85;;;34.80;44.00;;;;;;6215969;23;19997;-76
2023/07/17 09:03:27;;;;;;;21.10;5.30;;;34.80;43.80;;;;;;6215939;23;20011;-78
2023/07/17 09:05:53;;;;;;;21.45;5.38;;;34.80;43.60;;;;;;6215619;23;19996;-75
2023/07/17 09:08:18;;;;;;;16.95;6.20;;;34.80;43.60;;;;;;6215602;23;20001;-75
2023/07/17 09:10:44;;;;;;;15.32;5.18;;;34.80;43.50;;;;;;6215468;23;20338;-75
2023/07/17 09:13:11;;;;;;;17.63;5.53;;;34.80;43.40;;;;;;6215823;23;20007;-75
2023/07/17 09:15:38;;;;;;;17.20;6.70;;;34.80;43.60;;;;;;6215554;23;20000;-74
2023/07/17 09:18:04;;;;;;;15.85;6.22;;;34.90;43.50;;;;;;6215248;23;20016;-77
2023/07/17 09:20:30;;;;;;;13.20;6.25;;;35.00;43.40;;;;;;6215552;23;20104;-76
2023/07/17 09:22:59;;;;;;;17.67;5.72;;;35.00;42.90;;;;;;6188877;23;20020;-77
2023/07/17 09:25:27;;;;;;;19.20;7.13;;;35.10;43.00;;;;;;6215666;23;20434;-76
2023/07/17 09:27:53;;;;;;;16.05;6.25;;;35.10;43.00;;;;;;6215966;23;20339;-75
2023/07/17 09:30:24;;;;;;;19.63;6.93;;;35.20;42.10;;;;;;6215443;23;20004;-76
2023/07/17 09:32:51;;;;;;;21.40;7.22;;;35.20;40.40;;;;;;6215708;23;20273;-76
2023/07/17 09:35:19;;;;;;;20.73;7.20;;;35.10;40.30;;;;;;6215178;23;20332;-76
2023/07/17 09:37:46;;;;;;;15.00;7.95;;;35.20;39.50;;;;;;6215207;23;20025;-76
2023/07/17 09:40:15;;;;;;;15.45;7.88;;;35.20;37.90;;;;;;6215141;23;20312;-75
2023/07/17 09:42:43;;;;;;;14.70;7.53;;;35.20;37.80;;;;;;6214991;23;20296;-75
2023/07/17 09:45:14;;;;;;;15.73;7.38;;;35.20;37.90;;;;;;6215151;23;20001;-76
2023/07/17 09:47:41;;;;;;;17.60;7.82;;;35.30;39.20;;;;;;6215056;23;20001;-76
2023/07/17 09:50:08;;;;;;;14.88;6.78;;;35.40;40.70;;;;;;6214900;23;20063;-75
2023/07/17 09:52:34;;;;;;;15.68;8.07;;;35.40;40.20;;;;;;6214697;23;20407;-76
2023/07/17 09:55:00;;;;;;;17.42;7.82;;;35.50;40.00;;;;;;6214538;23;20000;-75
2023/07/17 09:57:44;;;;;;;18.60;7.00;;;35.50;40.10;;;;;;6214758;23;20356;-76
2023/07/17 10:00:14;;;;;;;15.88;7.93;;;35.60;39.90;;;;;;6214627;23;20024;-77
2023/07/17 10:02:47;;;;;;;18.50;8.20;;;35.60;38.60;;;;;;6215032;23;19997;-75
2023/07/17 10:05:14;;;;;;;15.40;8.00;;;35.60;37.70;;;;;;6215284;23;20004;-77
2023/07/17 10:07:43;;;;;;;16.85;7.82;;;35.60;37.00;;;;;;6214980;23;20132;-78
2023/07/17 10:10:10;;;;;;;16.42;9.02;;;35.60;36.30;;;;;;6214866;23;20055;-77
2023/07/17 10:12:38;;;;;;;15.45;8.70;;;35.70;36.10;;;;;;6214757;23;20028;-78
2023/07/17 10:15:05;;;;;;;19.55;8.63;;;35.80;35.60;;;;;;6214852;23;20020;-76
2023/07/17 10:17:33;;;;;;;18.48;7.90;;;35.80;35.30;;;;;;6215209;23;20013;-76
2023/07/17 10:20:06;;;;;;;15.55;8.45;;;35.90;34.60;;;;;;6214698;23;20110;-77
2023/07/17 10:22:50;;;;;;;16.65;8.38;;;35.90;34.30;;;;;;6214959;23;20001;-78
2023/07/17 10:25:18;;;;;;;16.52;7.80;;;36.00;34.90;;;;;;6215338;23;20005;-78
2023/07/17 10:27:57;;;;;;;15.55;7.95;;;36.00;34.90;;;;;;6214869;23;20047;-75
2023/07/17 10:30:31;;;;;;;13.95;8.50;;;36.00;35.20;;;;;;6214998;23;19997;-76
2023/07/17 10:33:14;;;;;;;17.08;8.02;;;36.10;35.00;;;;;;6214726;23;20414;-76
2023/07/17 10:35:43;;;;;;;16.15;7.97;;;36.20;33.70;;;;;;6214997;23;20004;-75
2023/07/17 10:38:10;;;;;;;12.90;7.95;;;36.20;33.60;;;;;;6215068;23;20370;-75
2023/07/17 10:40:36;;;;;;;14.38;7.72;;;36.20;33.20;;;;;;6214697;23;20039;-76
2023/07/17 10:43:21;;;;;;;11.90;7.60;;;36.20;33.50;;;;;;6214809;23;20004;-76
2023/07/17 10:45:48;;;;;;;14.57;7.43;;;36.30;34.00;;;;;;6214801;23;20051;-76
2023/07/17 10:48:15;;;;;;;15.02;6.95;;;36.30;33.60;;;;;;6215032;23;20067;-76
2023/07/17 10:51:07;;;;;;;14.05;6.90;;;36.40;32.30;;;;;;6214474;23;20005;-76
2023/07/17 10:53:33;;;;;;;15.82;6.97;;;36.40;31.60;;;;;;6209101;23;20032;-76
2023/07/17 10:55:58;;;;;;;17.15;7.25;;;36.60;32.20;;;;;;6215259;23;20011;-76
2023/07/17 10:58:25;;;;;;;13.02;6.28;;;36.60;31.60;;;;;;6214566;23;20004;-76
2023/07/17 11:00:51;;;;;;;13.85;7.72;;;36.60;31.60;;;;;;6214513;23;20379;-77
2023/07/17 11:03:18;;;;;;;12.82;6.97;;;36.70;31.50;;;;;;6214269;23;20080;-76
2023/07/17 11:05:46;;;;;;;14.98;7.75;;;36.80;31.80;;;;;;6214462;23;20007;-77
2023/07/17 11:08:13;;;;;;;17.13;7.30;;;36.80;31.60;;;;;;6214427;23;20024;-76
2023/07/17 11:10:42;;;;;;;14.43;7.45;;;36.90;31.90;;;;;;6214365;23;19997;-76
2023/07/17 11:13:08;;;;;;;20.70;7.55;;;36.90;31.70;;;;;;6214361;23;20083;-77
2023/07/17 11:15:35;;;;;;;14.32;6.97;;;36.90;31.70;;;;;;6214251;23;20434;-78
2023/07/17 11:18:04;;;;;;;17.13;6.97;;;37.00;32.00;;;;;;6187842;23;20035;-77
2023/07/17 11:20:30;;;;;;;17.80;7.47;;;36.90;32.20;;;;;;6214332;23;20390;-76
2023/07/17 11:22:56;;;;;;;15.57;7.10;;;37.00;32.30;;;;;;6214145;23;20004;-76
2023/07/17 11:25:29;;;;;;;14.93;7.75;;;37.10;32.20;;;;;;6214406;23;20000;-77
2023/07/17 11:27:56;;;;;;;;;;;37.10;32.40;;;;;;6215352;23;20005;-78
2023/07/17 11:30:28;;;;;;;17.63;6.80;;;37.20;33.20;;;;;;6187805;23;19900;-77
2023/07/17 11:33:04;;;;;;;16.63;7.13;;;37.20;33.20;;;;;;6214213;23;20023;-77
2023/07/17 11:35:40;;;;;;;19.63;7.50;;;37.30;33.90;;;;;;6214247;23;20005;-77
2023/07/17 11:38:08;;;;;;;14.65;6.85;;;37.40;33.80;;;;;;6214228;23;20013;-76
2023/07/17 11:40:52;;;;;;;21.33;7.15;;;37.40;33.90;;;;;;6214012;23;20008;-77
2023/07/17 11:43:54;;;;;;;15.45;7.45;;;37.50;33.80;;;;;;6214060;23;20001;-76
2023/07/17 11:46:20;;;;;;;15.45;7.05;;;37.50;33.90;;;;;;6214104;23;20001;-77
2023/07/17 11:48:46;;;;;;;25.92;6.95;;;37.60;34.10;;;;;;6214032;23;20332;-74
2023/07/17 11:51:12;;;;;;;19.90;7.75;;;37.70;34.40;;;;;;6214057;23;20025;-76
2023/07/17 11:53:37;;;;;;;13.88;7.30;;;37.70;34.20;;;;;;6213820;23;20012;-79
2023/07/17 11:56:04;;;;;;;17.98;7.20;;;37.90;34.40;;;;;;6214290;23;19997;-76
2023/07/17 11:58:35;;;;;;;17.15;6.90;;;37.90;34.70;;;;;;6213845;23;20016;-76
2023/07/17 12:01:01;;;;;;;16.98;6.43;;;38.00;35.20;;;;;;6214162;23;20068;-76
2023/07/17 12:03:27;;;;;;;17.85;6.70;;;38.10;36.10;;;;;;6214394;23;20012;-77
2023/07/17 12:05:52;;;;;;;18.88;6.88;;;38.20;36.80;;;;;;6214225;23;20001;-77
2023/07/17 12:08:18;;;;;;;19.10;6.82;;;38.20;37.00;;;;;;6214495;23;20000;-78
2023/07/17 12:10:44;;;;;;;17.40;5.32;;;38.10;37.50;;;;;;6214164;23;20374;-77
2023/07/17 12:13:10;;;;;;;21.55;5.88;;;38.20;37.40;;;;;;6214490;23;19997;-78
2023/07/17 12:15:37;;;;;;;11.82;5.28;;;38.20;37.30;;;;;;6214293;23;20296;-77
2023/07/17 12:18:03;;;;;;;11.30;5.40;;;38.30;37.20;;;;;;6213646;23;20007;-76
2023/07/17 12:20:32;;;;;;;17.75;5.45;;;38.30;36.90;;;;;;6214277;23;20016;-78
2023/07/17 12:22:58;;;;;;;16.85;5.80;;;38.40;36.50;;;;;;6187474;23;20084;-79
2023/07/17 12:25:24;;;;;;;16.63;5.63;;;38.40;36.30;;;;;;6214164;23;20028;-77
2023/07/17 12:27:50;;;;;;;20.83;6.03;;;38.40;36.10;;;;;;6213961;23;20001;-76
2023/07/17 12:30:20;;;;;;;14.65;5.93;;;38.50;35.40;;;;;;6213921;23;20320;-76
2023/07/17 12:32:46;;;;;;;13.05;5.97;;;38.40;35.10;;;;;;6214047;23;20107;-76
2023/07/17 12:35:12;;;;;;;13.43;5.43;;;38.40;35.20;;;;;;6214837;23;20055;-78
2023/07/17 12:37:37;;;;;;;14.73;6.13;;;38.50;35.40;;;;;;6213974;23;20031;-77